Terminal Aerodrome Forecast
Issued by NWS Grand Forks, ND

Home | Current Version | Previous Version | Text Only | Print | Product List | Glossary On
Versions: 1 2 3 4 5 6 7 8 9 10 11 12 13 14 15 16 17 18 19 20 21
000
FTUS43 KFGF 302230 AAA
TAFGFK
TAF AMD
KGFK 302230Z 3023/3118 18015G23KT P6SM BKN250
     FM310900 18013KT P6SM BKN250
     FM311500 20012KT P6SM BKN150=

USA.gov is the U.S. government's official web portal to all federal, state and local government web resources and services.